sensor_id;sensor_type;location;lat;lon;timestamp;temperature;humidity
35531;DHT22;21637;53.352;-6.356;2023-04-03T00:02:15;7.40;99.90
35531;DHT22;21637;53.352;-6.356;2023-04-03T00:04:40;7.40;99.90
35531;DHT22;21637;53.352;-6.356;2023-04-03T00:07:07;7.40;99.90
35531;DHT22;21637;53.352;-6.356;2023-04-03T00:09:32;7.40;99.90
35531;DHT22;21637;53.352;-6.356;2023-04-03T00:11:58;7.40;99.90
35531;DHT22;21637;53.352;-6.356;2023-04-03T00:14:24;7.40;99.90
35531;DHT22;21637;53.352;-6.356;2023-04-03T00:16:49;7.40;99.90
35531;DHT22;21637;53.352;-6.356;2023-04-03T00:19:15;7.40;99.90
35531;DHT22;21637;53.352;-6.356;2023-04-03T00:21:41;7.40;99.90
35531;DHT22;21637;53.352;-6.356;2023-04-03T00:24:06;7.40;99.90
35531;DHT22;21637;53.352;-6.356;2023-04-03T00:26:32;7.40;99.90
35531;DHT22;21637;53.352;-6.356;2023-04-03T00:28:58;7.40;99.90
35531;DHT22;21637;53.352;-6.356;2023-04-03T00:31:23;7.40;99.90
35531;DHT22;21637;53.352;-6.356;2023-04-03T00:33:49;7.40;99.90
35531;DHT22;21637;53.352;-6.356;2023-04-03T00:36:15;7.40;99.90
35531;DHT22;21637;53.352;-6.356;2023-04-03T00:38:41;7.40;99.90
35531;DHT22;21637;53.352;-6.356;2023-04-03T00:41:07;7.30;99.90
35531;DHT22;21637;53.352;-6.356;2023-04-03T00:43:33;7.30;99.90
35531;DHT22;21637;53.352;-6.356;2023-04-03T00:45:59;7.30;99.90
35531;DHT22;21637;53.352;-6.356;2023-04-03T00:48:31;7.30;99.90
35531;DHT22;21637;53.352;-6.356;2023-04-03T00:50:58;7.20;99.90
35531;DHT22;21637;53.352;-6.356;2023-04-03T00:53:35;7.20;99.90
35531;DHT22;21637;53.352;-6.356;2023-04-03T00:56:06;7.20;99.90
35531;DHT22;21637;53.352;-6.356;2023-04-03T00:58:48;7.20;99.90
35531;DHT22;21637;53.352;-6.356;2023-04-03T01:01:24;7.20;99.90
35531;DHT22;21637;53.352;-6.356;2023-04-03T01:03:50;7.20;99.90
35531;DHT22;21637;53.352;-6.356;2023-04-03T01:06:17;7.20;99.90
35531;DHT22;21637;53.352;-6.356;2023-04-03T01:08:47;7.20;99.90
35531;DHT22;21637;53.352;-6.356;2023-04-03T01:11:14;7.20;99.90
35531;DHT22;21637;53.352;-6.356;2023-04-03T01:13:39;7.20;99.90
35531;DHT22;21637;53.352;-6.356;2023-04-03T01:16:06;7.20;99.90
35531;DHT22;21637;53.352;-6.356;2023-04-03T01:18:33;7.20;99.90
35531;DHT22;21637;53.352;-6.356;2023-04-03T01:24:32;7.20;99.90
35531;DHT22;21637;53.352;-6.356;2023-04-03T01:26:57;7.20;99.90
35531;DHT22;21637;53.352;-6.356;2023-04-03T01:29:23;7.10;99.90
35531;DHT22;21637;53.352;-6.356;2023-04-03T01:34:14;7.10;99.90
35531;DHT22;21637;53.352;-6.356;2023-04-03T01:36:40;7.10;99.90
35531;DHT22;21637;53.352;-6.356;2023-04-03T01:39:06;7.10;99.90
35531;DHT22;21637;53.352;-6.356;2023-04-03T01:41:32;7.00;99.90
35531;DHT22;21637;53.352;-6.356;2023-04-03T01:43:58;7.00;99.90
35531;DHT22;21637;53.352;-6.356;2023-04-03T01:46:24;7.00;99.90
35531;DHT22;21637;53.352;-6.356;2023-04-03T01:48:50;6.80;99.90
35531;DHT22;21637;53.352;-6.356;2023-04-03T01:51:15;6.80;99.90
35531;DHT22;21637;53.352;-6.356;2023-04-03T01:53:41;6.80;99.90
35531;DHT22;21637;53.352;-6.356;2023-04-03T01:56:07;6.70;99.90
35531;DHT22;21637;53.352;-6.356;2023-04-03T01:58:33;6.60;99.90
35531;DHT22;21637;53.352;-6.356;2023-04-03T02:00:59;6.60;99.90
35531;DHT22;21637;53.352;-6.356;2023-04-03T02:03:25;6.50;99.90
35531;DHT22;21637;53.352;-6.356;2023-04-03T02:05:51;6.50;99.90
35531;DHT22;21637;53.352;-6.356;2023-04-03T02:08:17;6.50;99.90
35531;DHT22;21637;53.352;-6.356;2023-04-03T02:10:49;6.40;99.90
35531;DHT22;21637;53.352;-6.356;2023-04-03T02:13:16;6.40;99.90
35531;DHT22;21637;53.352;-6.356;2023-04-03T02:15:42;6.30;99.90
35531;DHT22;21637;53.352;-6.356;2023-04-03T02:18:08;6.30;99.90
35531;DHT22;21637;53.352;-6.356;2023-04-03T02:20:34;6.30;99.90
35531;DHT22;21637;53.352;-6.356;2023-04-03T02:23:00;6.10;99.90
35531;DHT22;21637;53.352;-6.356;2023-04-03T02:25:26;6.10;99.90
35531;DHT22;21637;53.352;-6.356;2023-04-03T02:27:52;6.00;99.90
35531;DHT22;21637;53.352;-6.356;2023-04-03T02:30:18;6.00;99.90
35531;DHT22;21637;53.352;-6.356;2023-04-03T02:32:44;6.00;99.90
35531;DHT22;21637;53.352;-6.356;2023-04-03T02:35:11;6.00;99.90
35531;DHT22;21637;53.352;-6.356;2023-04-03T02:37:37;6.00;99.90
35531;DHT22;21637;53.352;-6.356;2023-04-03T02:40:03;6.00;99.90
35531;DHT22;21637;53.352;-6.356;2023-04-03T02:42:29;6.00;99.90
35531;DHT22;21637;53.352;-6.356;2023-04-03T02:44:54;6.00;99.90
35531;DHT22;21637;53.352;-6.356;2023-04-03T02:47:20;6.00;99.90
35531;DHT22;21637;53.352;-6.356;2023-04-03T02:49:46;6.00;99.90
35531;DHT22;21637;53.352;-6.356;2023-04-03T02:52:13;6.00;99.90
35531;DHT22;21637;53.352;-6.356;2023-04-03T02:54:39;6.00;99.90
35531;DHT22;21637;53.352;-6.356;2023-04-03T02:57:05;5.90;99.90
35531;DHT22;21637;53.352;-6.356;2023-04-03T02:59:30;6.00;99.90
35531;DHT22;21637;53.352;-6.356;2023-04-03T03:01:56;5.90;99.90
35531;DHT22;21637;53.352;-6.356;2023-04-03T03:04:22;5.90;99.90
35531;DHT22;21637;53.352;-6.356;2023-04-03T03:06:48;5.90;99.90
35531;DHT22;21637;53.352;-6.356;2023-04-03T03:09:14;5.90;99.90
35531;DHT22;21637;53.352;-6.356;2023-04-03T03:11:40;6.00;99.90
35531;DHT22;21637;53.352;-6.356;2023-04-03T03:14:05;6.00;99.90
35531;DHT22;21637;53.352;-6.356;2023-04-03T03:16:31;6.10;99.90
35531;DHT22;21637;53.352;-6.356;2023-04-03T03:18:57;6.10;99.90
35531;DHT22;21637;53.352;-6.356;2023-04-03T03:21:23;6.20;99.90
35531;DHT22;21637;53.352;-6.356;2023-04-03T03:23:48;6.30;99.90
35531;DHT22;21637;53.352;-6.356;2023-04-03T03:26:14;6.30;99.90
35531;DHT22;21637;53.352;-6.356;2023-04-03T03:28:40;6.30;99.90
35531;DHT22;21637;53.352;-6.356;2023-04-03T03:31:06;6.30;99.90
35531;DHT22;21637;53.352;-6.356;2023-04-03T03:33:32;6.30;99.90
35531;DHT22;21637;53.352;-6.356;2023-04-03T03:35:59;6.30;99.90
35531;DHT22;21637;53.352;-6.356;2023-04-03T03:38:25;6.30;99.90
35531;DHT22;21637;53.352;-6.356;2023-04-03T03:40:51;6.40;99.90
35531;DHT22;21637;53.352;-6.356;2023-04-03T03:43:17;6.40;99.90
35531;DHT22;21637;53.352;-6.356;2023-04-03T03:45:44;6.50;99.90
35531;DHT22;21637;53.352;-6.356;2023-04-03T03:48:11;6.50;99.90
35531;DHT22;21637;53.352;-6.356;2023-04-03T03:50:36;6.50;99.90
35531;DHT22;21637;53.352;-6.356;2023-04-03T03:53:02;6.50;99.90
35531;DHT22;21637;53.352;-6.356;2023-04-03T03:55:28;6.50;99.90
35531;DHT22;21637;53.352;-6.356;2023-04-03T03:57:53;6.50;99.90
35531;DHT22;21637;53.352;-6.356;2023-04-03T04:00:19;6.60;99.90
35531;DHT22;21637;53.352;-6.356;2023-04-03T04:02:45;6.60;99.90
35531;DHT22;21637;53.352;-6.356;2023-04-03T04:05:11;6.70;99.90
35531;DHT22;21637;53.352;-6.356;2023-04-03T04:07:37;6.80;99.90
35531;DHT22;21637;53.352;-6.356;2023-04-03T04:10:03;6.70;99.90
35531;DHT22;21637;53.352;-6.356;2023-04-03T04:12:29;6.80;99.90
35531;DHT22;21637;53.352;-6.356;2023-04-03T04:14:55;6.80;99.90
35531;DHT22;21637;53.352;-6.356;2023-04-03T04:17:21;6.80;99.90
35531;DHT22;21637;53.352;-6.356;2023-04-03T04:19:46;6.80;99.90
35531;DHT22;21637;53.352;-6.356;2023-04-03T04:22:12;6.80;99.90
35531;DHT22;21637;53.352;-6.356;2023-04-03T04:24:38;6.80;99.90
35531;DHT22;21637;53.352;-6.356;2023-04-03T04:27:04;6.80;99.90
35531;DHT22;21637;53.352;-6.356;2023-04-03T04:29:29;6.80;99.90
35531;DHT22;21637;53.352;-6.356;2023-04-03T04:32:00;6.80;99.90
35531;DHT22;21637;53.352;-6.356;2023-04-03T04:34:26;6.90;99.90
35531;DHT22;21637;53.352;-6.356;2023-04-03T04:36:51;6.90;99.90
35531;DHT22;21637;53.352;-6.356;2023-04-03T04:39:17;6.80;99.90
35531;DHT22;21637;53.352;-6.356;2023-04-03T04:41:43;6.90;99.90
35531;DHT22;21637;53.352;-6.356;2023-04-03T04:44:08;6.90;99.90
35531;DHT22;21637;53.352;-6.356;2023-04-03T04:46:34;6.90;99.90
35531;DHT22;21637;53.352;-6.356;2023-04-03T04:49:00;6.80;99.90
35531;DHT22;21637;53.352;-6.356;2023-04-03T04:51:26;6.80;99.90
35531;DHT22;21637;53.352;-6.356;2023-04-03T04:53:52;6.90;99.90
35531;DHT22;21637;53.352;-6.356;2023-04-03T04:56:17;6.90;99.90
35531;DHT22;21637;53.352;-6.356;2023-04-03T04:58:43;6.90;99.90
35531;DHT22;21637;53.352;-6.356;2023-04-03T05:01:10;6.90;99.90
35531;DHT22;21637;53.352;-6.356;2023-04-03T05:03:36;6.90;99.90
35531;DHT22;21637;53.352;-6.356;2023-04-03T05:06:02;7.00;99.90
35531;DHT22;21637;53.352;-6.356;2023-04-03T05:08:28;6.90;99.90
35531;DHT22;21637;53.352;-6.356;2023-04-03T05:10:53;7.00;99.90
35531;DHT22;21637;53.352;-6.356;2023-04-03T05:13:19;7.00;99.90
35531;DHT22;21637;53.352;-6.356;2023-04-03T05:15:46;7.10;99.90
35531;DHT22;21637;53.352;-6.356;2023-04-03T05:18:12;7.20;99.90
35531;DHT22;21637;53.352;-6.356;2023-04-03T05:20:38;7.20;99.90
35531;DHT22;21637;53.352;-6.356;2023-04-03T05:23:04;7.30;99.90
35531;DHT22;21637;53.352;-6.356;2023-04-03T05:25:30;7.30;99.90
35531;DHT22;21637;53.352;-6.356;2023-04-03T05:27:56;7.30;99.90
35531;DHT22;21637;53.352;-6.356;2023-04-03T05:30:22;7.30;99.90
35531;DHT22;21637;53.352;-6.356;2023-04-03T05:32:48;7.20;99.90
35531;DHT22;21637;53.352;-6.356;2023-04-03T05:35:13;7.20;99.90
35531;DHT22;21637;53.352;-6.356;2023-04-03T05:37:39;7.20;99.90
35531;DHT22;21637;53.352;-6.356;2023-04-03T05:40:07;7.10;99.90
35531;DHT22;21637;53.352;-6.356;2023-04-03T05:42:32;6.90;99.90
35531;DHT22;21637;53.352;-6.356;2023-04-03T05:44:58;6.90;99.90
35531;DHT22;21637;53.352;-6.356;2023-04-03T05:47:24;6.90;99.90
35531;DHT22;21637;53.352;-6.356;2023-04-03T05:49:50;7.00;99.90
35531;DHT22;21637;53.352;-6.356;2023-04-03T05:54:51;7.20;99.90
35531;DHT22;21637;53.352;-6.356;2023-04-03T05:57:17;7.30;99.90
35531;DHT22;21637;53.352;-6.356;2023-04-03T05:59:44;7.40;99.90
35531;DHT22;21637;53.352;-6.356;2023-04-03T06:02:17;7.40;99.90
35531;DHT22;21637;53.352;-6.356;2023-04-03T06:04:44;7.50;99.90
35531;DHT22;21637;53.352;-6.356;2023-04-03T06:07:15;7.50;99.90
35531;DHT22;21637;53.352;-6.356;2023-04-03T06:09:41;7.60;99.90
35531;DHT22;21637;53.352;-6.356;2023-04-03T06:12:08;7.60;99.90
35531;DHT22;21637;53.352;-6.356;2023-04-03T06:14:34;7.70;99.90
35531;DHT22;21637;53.352;-6.356;2023-04-03T06:16:59;7.70;99.90
35531;DHT22;21637;53.352;-6.356;2023-04-03T06:19:25;7.80;99.90
35531;DHT22;21637;53.352;-6.356;2023-04-03T06:21:52;7.90;99.90
35531;DHT22;21637;53.352;-6.356;2023-04-03T06:24:18;7.90;99.90
35531;DHT22;21637;53.352;-6.356;2023-04-03T06:26:47;8.00;99.90
35531;DHT22;21637;53.352;-6.356;2023-04-03T06:29:13;8.10;99.90
35531;DHT22;21637;53.352;-6.356;2023-04-03T06:31:38;8.30;99.90
35531;DHT22;21637;53.352;-6.356;2023-04-03T06:34:05;8.40;99.90
35531;DHT22;21637;53.352;-6.356;2023-04-03T06:36:33;8.50;99.90
35531;DHT22;21637;53.352;-6.356;2023-04-03T06:38:58;8.60;99.90
35531;DHT22;21637;53.352;-6.356;2023-04-03T06:41:25;8.60;99.90
35531;DHT22;21637;53.352;-6.356;2023-04-03T06:43:51;8.60;99.90
35531;DHT22;21637;53.352;-6.356;2023-04-03T06:46:19;8.70;99.90
35531;DHT22;21637;53.352;-6.356;2023-04-03T06:48:45;8.70;99.90
35531;DHT22;21637;53.352;-6.356;2023-04-03T06:51:29;8.80;99.90
35531;DHT22;21637;53.352;-6.356;2023-04-03T06:53:58;8.90;99.90
35531;DHT22;21637;53.352;-6.356;2023-04-03T06:56:24;9.00;99.90
35531;DHT22;21637;53.352;-6.356;2023-04-03T06:58:52;9.10;99.90
35531;DHT22;21637;53.352;-6.356;2023-04-03T07:01:20;9.20;99.90
35531;DHT22;21637;53.352;-6.356;2023-04-03T07:03:47;9.40;99.90
35531;DHT22;21637;53.352;-6.356;2023-04-03T07:06:15;9.50;99.90
35531;DHT22;21637;53.352;-6.356;2023-04-03T07:08:41;9.60;99.90
35531;DHT22;21637;53.352;-6.356;2023-04-03T07:11:08;9.70;99.90
35531;DHT22;21637;53.352;-6.356;2023-04-03T07:13:34;9.70;99.90
35531;DHT22;21637;53.352;-6.356;2023-04-03T07:16:00;9.80;99.90
35531;DHT22;21637;53.352;-6.356;2023-04-03T07:18:26;9.80;99.90
35531;DHT22;21637;53.352;-6.356;2023-04-03T07:20:52;9.80;99.90
35531;DHT22;21637;53.352;-6.356;2023-04-03T07:23:18;9.70;99.90
35531;DHT22;21637;53.352;-6.356;2023-04-03T07:25:46;9.80;99.90
35531;DHT22;21637;53.352;-6.356;2023-04-03T07:28:13;9.70;99.90
35531;DHT22;21637;53.352;-6.356;2023-04-03T07:30:45;9.80;99.90
35531;DHT22;21637;53.352;-6.356;2023-04-03T07:33:13;9.70;99.90
35531;DHT22;21637;53.352;-6.356;2023-04-03T07:35:40;9.70;99.90
35531;DHT22;21637;53.352;-6.356;2023-04-03T07:38:06;9.70;99.90
35531;DHT22;21637;53.352;-6.356;2023-04-03T07:40:32;9.80;99.90
35531;DHT22;21637;53.352;-6.356;2023-04-03T07:42:58;9.90;99.90
35531;DHT22;21637;53.352;-6.356;2023-04-03T07:45:24;10.00;99.90
35531;DHT22;21637;53.352;-6.356;2023-04-03T07:47:50;10.00;99.90
35531;DHT22;21637;53.352;-6.356;2023-04-03T07:50:16;10.00;99.90
35531;DHT22;21637;53.352;-6.356;2023-04-03T07:52:42;10.00;99.90
35531;DHT22;21637;53.352;-6.356;2023-04-03T07:55:08;10.00;99.90
35531;DHT22;21637;53.352;-6.356;2023-04-03T07:57:34;10.00;99.90
35531;DHT22;21637;53.352;-6.356;2023-04-03T08:00:01;10.00;99.90
35531;DHT22;21637;53.352;-6.356;2023-04-03T08:02:26;10.10;99.90
35531;DHT22;21637;53.352;-6.356;2023-04-03T08:04:52;10.20;99.90
35531;DHT22;21637;53.352;-6.356;2023-04-03T08:07:18;10.20;99.90
35531;DHT22;21637;53.352;-6.356;2023-04-03T08:09:44;10.20;99.90
35531;DHT22;21637;53.352;-6.356;2023-04-03T08:12:10;10.20;99.90
35531;DHT22;21637;53.352;-6.356;2023-04-03T08:14:37;10.40;99.90
35531;DHT22;21637;53.352;-6.356;2023-04-03T08:17:03;10.40;99.90
35531;DHT22;21637;53.352;-6.356;2023-04-03T08:19:30;10.40;99.90
35531;DHT22;21637;53.352;-6.356;2023-04-03T08:21:56;10.40;99.90
35531;DHT22;21637;53.352;-6.356;2023-04-03T08:24:24;10.40;99.90
35531;DHT22;21637;53.352;-6.356;2023-04-03T08:26:50;10.40;99.90
35531;DHT22;21637;53.352;-6.356;2023-04-03T08:29:15;10.40;99.90
35531;DHT22;21637;53.352;-6.356;2023-04-03T08:31:41;10.40;99.90
35531;DHT22;21637;53.352;-6.356;2023-04-03T08:34:07;10.40;99.90
35531;DHT22;21637;53.352;-6.356;2023-04-03T08:36:34;10.40;99.90
35531;DHT22;21637;53.352;-6.356;2023-04-03T08:38:59;10.30;99.90
35531;DHT22;21637;53.352;-6.356;2023-04-03T08:49:13;10.40;99.90
35531;DHT22;21637;53.352;-6.356;2023-04-03T08:51:47;10.50;99.90
35531;DHT22;21637;53.352;-6.356;2023-04-03T08:54:34;10.70;99.90
35531;DHT22;21637;53.352;-6.356;2023-04-03T08:57:02;10.70;99.90
35531;DHT22;21637;53.352;-6.356;2023-04-03T08:59:34;10.90;99.90
35531;DHT22;21637;53.352;-6.356;2023-04-03T09:02:04;10.90;99.90
35531;DHT22;21637;53.352;-6.356;2023-04-03T09:04:32;11.00;99.90
35531;DHT22;21637;53.352;-6.356;2023-04-03T09:07:07;10.90;99.90
35531;DHT22;21637;53.352;-6.356;2023-04-03T09:09:40;11.00;99.90
35531;DHT22;21637;53.352;-6.356;2023-04-03T09:12:22;11.00;99.90
35531;DHT22;21637;53.352;-6.356;2023-04-03T09:15:01;11.00;99.90
35531;DHT22;21637;53.352;-6.356;2023-04-03T09:20:43;11.10;99.90
35531;DHT22;21637;53.352;-6.356;2023-04-03T09:25:52;11.20;99.90
35531;DHT22;21637;53.352;-6.356;2023-04-03T09:28:18;11.40;99.90
35531;DHT22;21637;53.352;-6.356;2023-04-03T09:30:44;11.60;99.90
35531;DHT22;21637;53.352;-6.356;2023-04-03T09:33:11;11.70;99.90
35531;DHT22;21637;53.352;-6.356;2023-04-03T09:35:37;11.70;99.90
35531;DHT22;21637;53.352;-6.356;2023-04-03T09:40:42;11.60;99.90
35531;DHT22;21637;53.352;-6.356;2023-04-03T09:45:43;11.70;99.90
35531;DHT22;21637;53.352;-6.356;2023-04-03T09:55:57;11.90;99.90
35531;DHT22;21637;53.352;-6.356;2023-04-03T09:58:32;11.90;99.90
35531;DHT22;21637;53.352;-6.356;2023-04-03T10:01:01;11.90;99.90
35531;DHT22;21637;53.352;-6.356;2023-04-03T10:03:31;11.80;99.90
35531;DHT22;21637;53.352;-6.356;2023-04-03T10:05:57;11.70;99.90
35531;DHT22;21637;53.352;-6.356;2023-04-03T10:08:34;11.60;99.90
35531;DHT22;21637;53.352;-6.356;2023-04-03T10:11:15;11.60;99.90
35531;DHT22;21637;53.352;-6.356;2023-04-03T10:13:59;11.50;99.90
35531;DHT22;21637;53.352;-6.356;2023-04-03T10:16:33;11.60;99.90
35531;DHT22;21637;53.352;-6.356;2023-04-03T10:22:40;11.60;99.90
35531;DHT22;21637;53.352;-6.356;2023-04-03T10:30:34;11.50;99.90
35531;DHT22;21637;53.352;-6.356;2023-04-03T10:36:04;11.50;99.90
35531;DHT22;21637;53.352;-6.356;2023-04-03T10:44:09;11.40;99.90
35531;DHT22;21637;53.352;-6.356;2023-04-03T10:46:53;11.50;99.90
35531;DHT22;21637;53.352;-6.356;2023-04-03T10:49:40;11.60;99.90
35531;DHT22;21637;53.352;-6.356;2023-04-03T10:58:24;11.60;99.90
35531;DHT22;21637;53.352;-6.356;2023-04-03T11:00:54;11.70;99.90
35531;DHT22;21637;53.352;-6.356;2023-04-03T11:03:41;11.70;99.90
35531;DHT22;21637;53.352;-6.356;2023-04-03T11:06:11;11.70;99.90
35531;DHT22;21637;53.352;-6.356;2023-04-03T11:09:03;11.60;99.90
35531;DHT22;21637;53.352;-6.356;2023-04-03T11:11:40;11.60;99.90
35531;DHT22;21637;53.352;-6.356;2023-04-03T11:14:21;11.60;99.90
35531;DHT22;21637;53.352;-6.356;2023-04-03T11:17:05;11.60;99.90
35531;DHT22;21637;53.352;-6.356;2023-04-03T11:19:39;11.60;99.90
35531;DHT22;21637;53.352;-6.356;2023-04-03T11:22:23;11.60;99.90
35531;DHT22;21637;53.352;-6.356;2023-04-03T11:28:05;11.60;99.90
35531;DHT22;21637;53.352;-6.356;2023-04-03T11:30:44;11.70;99.90
35531;DHT22;21637;53.352;-6.356;2023-04-03T11:35:48;11.90;99.90
35531;DHT22;21637;53.352;-6.356;2023-04-03T11:38:25;11.90;99.90
35531;DHT22;21637;53.352;-6.356;2023-04-03T11:40:53;12.00;99.90
35531;DHT22;21637;53.352;-6.356;2023-04-03T11:43:30;12.10;99.90
35531;DHT22;21637;53.352;-6.356;2023-04-03T11:45:59;12.10;99.90
35531;DHT22;21637;53.352;-6.356;2023-04-03T11:53:43;12.30;99.90
35531;DHT22;21637;53.352;-6.356;2023-04-03T11:59:23;12.10;99.90
35531;DHT22;21637;53.352;-6.356;2023-04-03T12:01:56;12.10;99.90
35531;DHT22;21637;53.352;-6.356;2023-04-03T12:04:25;12.20;99.90
35531;DHT22;21637;53.352;-6.356;2023-04-03T12:07:08;12.20;99.90
35531;DHT22;21637;53.352;-6.356;2023-04-03T12:14:51;12.00;99.90
35531;DHT22;21637;53.352;-6.356;2023-04-03T12:17:27;12.10;99.90
35531;DHT22;21637;53.352;-6.356;2023-04-03T12:19:54;12.10;99.90
35531;DHT22;21637;53.352;-6.356;2023-04-03T12:22:21;12.00;99.90
35531;DHT22;21637;53.352;-6.356;2023-04-03T12:24:52;12.00;99.90
35531;DHT22;21637;53.352;-6.356;2023-04-03T12:27:38;12.00;99.90
35531;DHT22;21637;53.352;-6.356;2023-04-03T12:30:22;12.10;99.90
35531;DHT22;21637;53.352;-6.356;2023-04-03T12:33:23;12.00;99.90
35531;DHT22;21637;53.352;-6.356;2023-04-03T12:36:18;12.00;99.90
35531;DHT22;21637;53.352;-6.356;2023-04-03T12:39:03;12.00;99.90
35531;DHT22;21637;53.352;-6.356;2023-04-03T12:44:19;11.70;99.90
35531;DHT22;21637;53.352;-6.356;2023-04-03T12:46:52;11.70;99.90
35531;DHT22;21637;53.352;-6.356;2023-04-03T12:49:38;11.60;99.90
35531;DHT22;21637;53.352;-6.356;2023-04-03T12:52:42;11.70;99.90
35531;DHT22;21637;53.352;-6.356;2023-04-03T12:55:17;11.80;99.90
35531;DHT22;21637;53.352;-6.356;2023-04-03T12:57:50;11.90;99.90
35531;DHT22;21637;53.352;-6.356;2023-04-03T13:00:31;12.00;99.90
35531;DHT22;21637;53.352;-6.356;2023-04-03T13:02:59;12.10;99.90
35531;DHT22;21637;53.352;-6.356;2023-04-03T13:05:27;12.30;99.90
35531;DHT22;21637;53.352;-6.356;2023-04-03T13:08:01;12.30;99.90
35531;DHT22;21637;53.352;-6.356;2023-04-03T13:10:29;12.40;99.90
35531;DHT22;21637;53.352;-6.356;2023-04-03T13:12:57;12.50;99.90
35531;DHT22;21637;53.352;-6.356;2023-04-03T13:15:40;12.50;99.90
35531;DHT22;21637;53.352;-6.356;2023-04-03T13:18:22;12.60;99.90
35531;DHT22;21637;53.352;-6.356;2023-04-03T13:20:49;12.60;99.90
35531;DHT22;21637;53.352;-6.356;2023-04-03T13:23:17;12.60;99.90
35531;DHT22;21637;53.352;-6.356;2023-04-03T13:25:46;12.60;99.90
35531;DHT22;21637;53.352;-6.356;2023-04-03T13:28:17;12.60;99.90
35531;DHT22;21637;53.352;-6.356;2023-04-03T13:33:32;12.70;99.90
35531;DHT22;21637;53.352;-6.356;2023-04-03T13:38:31;12.50;99.90
35531;DHT22;21637;53.352;-6.356;2023-04-03T13:41:01;12.50;99.90
35531;DHT22;21637;53.352;-6.356;2023-04-03T13:43:34;12.50;99.90
35531;DHT22;21637;53.352;-6.356;2023-04-03T13:48:44;12.60;99.90
35531;DHT22;21637;53.352;-6.356;2023-04-03T13:53:53;12.50;99.90
35531;DHT22;21637;53.352;-6.356;2023-04-03T13:56:54;12.40;99.90
35531;DHT22;21637;53.352;-6.356;2023-04-03T14:04:18;12.30;99.90
35531;DHT22;21637;53.352;-6.356;2023-04-03T14:06:44;12.20;99.90
35531;DHT22;21637;53.352;-6.356;2023-04-03T14:09:10;12.20;99.90
35531;DHT22;21637;53.352;-6.356;2023-04-03T14:11:36;12.20;99.90
35531;DHT22;21637;53.352;-6.356;2023-04-03T14:14:09;12.20;99.90
35531;DHT22;21637;53.352;-6.356;2023-04-03T14:16:39;12.30;99.90
35531;DHT22;21637;53.352;-6.356;2023-04-03T14:19:06;12.30;99.90
35531;DHT22;21637;53.352;-6.356;2023-04-03T14:21:32;12.30;99.90
35531;DHT22;21637;53.352;-6.356;2023-04-03T14:23:57;12.20;99.90
35531;DHT22;21637;53.352;-6.356;2023-04-03T14:26:24;12.30;99.90
35531;DHT22;21637;53.352;-6.356;2023-04-03T14:28:53;12.30;99.90
35531;DHT22;21637;53.352;-6.356;2023-04-03T14:31:20;12.40;99.90
35531;DHT22;21637;53.352;-6.356;2023-04-03T14:33:47;12.50;99.90
35531;DHT22;21637;53.352;-6.356;2023-04-03T14:36:15;12.60;99.90
35531;DHT22;21637;53.352;-6.356;2023-04-03T14:38:42;12.60;99.90
35531;DHT22;21637;53.352;-6.356;2023-04-03T14:41:12;12.60;99.90
35531;DHT22;21637;53.352;-6.356;2023-04-03T14:43:37;12.60;99.90
35531;DHT22;21637;53.352;-6.356;2023-04-03T14:46:04;12.60;99.90
35531;DHT22;21637;53.352;-6.356;2023-04-03T14:48:31;12.50;99.90
35531;DHT22;21637;53.352;-6.356;2023-04-03T14:50:57;12.40;99.90
35531;DHT22;21637;53.352;-6.356;2023-04-03T14:53:23;12.40;99.90
35531;DHT22;21637;53.352;-6.356;2023-04-03T14:55:51;12.40;99.90
35531;DHT22;21637;53.352;-6.356;2023-04-03T14:58:20;12.50;99.90
35531;DHT22;21637;53.352;-6.356;2023-04-03T15:00:46;12.60;99.90
35531;DHT22;21637;53.352;-6.356;2023-04-03T15:03:18;12.60;99.90
35531;DHT22;21637;53.352;-6.356;2023-04-03T15:05:45;12.60;99.90
35531;DHT22;21637;53.352;-6.356;2023-04-03T15:08:22;12.70;99.90
35531;DHT22;21637;53.352;-6.356;2023-04-03T15:10:50;12.80;99.90
35531;DHT22;21637;53.352;-6.356;2023-04-03T15:13:18;12.90;99.90
35531;DHT22;21637;53.352;-6.356;2023-04-03T15:15:44;13.00;99.90
35531;DHT22;21637;53.352;-6.356;2023-04-03T15:18:25;13.00;99.90
35531;DHT22;21637;53.352;-6.356;2023-04-03T15:20:54;13.10;99.90
35531;DHT22;21637;53.352;-6.356;2023-04-03T15:23:21;13.20;99.90
35531;DHT22;21637;53.352;-6.356;2023-04-03T15:25:51;13.30;99.90
35531;DHT22;21637;53.352;-6.356;2023-04-03T15:28:41;13.50;99.90
35531;DHT22;21637;53.352;-6.356;2023-04-03T15:31:07;13.50;99.90
35531;DHT22;21637;53.352;-6.356;2023-04-03T15:33:34;13.70;99.90
35531;DHT22;21637;53.352;-6.356;2023-04-03T15:36:01;14.00;99.90
35531;DHT22;21637;53.352;-6.356;2023-04-03T15:38:27;14.00;99.90
35531;DHT22;21637;53.352;-6.356;2023-04-03T15:40:54;14.10;99.90
35531;DHT22;21637;53.352;-6.356;2023-04-03T15:43:21;14.30;99.90
35531;DHT22;21637;53.352;-6.356;2023-04-03T15:45:48;14.40;99.90
35531;DHT22;21637;53.352;-6.356;2023-04-03T15:48:14;14.60;99.90
35531;DHT22;21637;53.352;-6.356;2023-04-03T15:50:41;14.60;99.90
35531;DHT22;21637;53.352;-6.356;2023-04-03T15:53:07;14.70;99.90
35531;DHT22;21637;53.352;-6.356;2023-04-03T15:55:35;14.70;99.90
35531;DHT22;21637;53.352;-6.356;2023-04-03T15:58:01;14.60;99.90
35531;DHT22;21637;53.352;-6.356;2023-04-03T16:00:28;14.70;99.90
35531;DHT22;21637;53.352;-6.356;2023-04-03T16:03:00;14.70;99.90
35531;DHT22;21637;53.352;-6.356;2023-04-03T16:05:29;14.70;99.90
35531;DHT22;21637;53.352;-6.356;2023-04-03T16:07:57;14.70;99.90
35531;DHT22;21637;53.352;-6.356;2023-04-03T16:10:23;14.80;99.90
35531;DHT22;21637;53.352;-6.356;2023-04-03T16:12:49;14.80;99.90
35531;DHT22;21637;53.352;-6.356;2023-04-03T16:15:15;14.80;99.90
35531;DHT22;21637;53.352;-6.356;2023-04-03T16:17:40;14.80;99.90
35531;DHT22;21637;53.352;-6.356;2023-04-03T16:20:07;14.90;99.90
35531;DHT22;21637;53.352;-6.356;2023-04-03T16:22:34;14.90;99.90
35531;DHT22;21637;53.352;-6.356;2023-04-03T16:24:59;14.90;99.90
35531;DHT22;21637;53.352;-6.356;2023-04-03T16:27:25;14.80;99.90
35531;DHT22;21637;53.352;-6.356;2023-04-03T16:29:54;14.80;99.90
35531;DHT22;21637;53.352;-6.356;2023-04-03T16:32:20;14.80;99.90
35531;DHT22;21637;53.352;-6.356;2023-04-03T16:34:47;14.80;99.90
35531;DHT22;21637;53.352;-6.356;2023-04-03T16:37:13;14.70;99.90
35531;DHT22;21637;53.352;-6.356;2023-04-03T16:39:38;14.60;99.90
35531;DHT22;21637;53.352;-6.356;2023-04-03T16:42:04;14.30;99.90
35531;DHT22;21637;53.352;-6.356;2023-04-03T16:44:30;14.30;99.90
35531;DHT22;21637;53.352;-6.356;2023-04-03T16:46:55;14.10;99.90
35531;DHT22;21637;53.352;-6.356;2023-04-03T16:49:21;13.90;99.90
35531;DHT22;21637;53.352;-6.356;2023-04-03T16:51:48;13.80;99.90
35531;DHT22;21637;53.352;-6.356;2023-04-03T16:54:14;13.60;99.90
35531;DHT22;21637;53.352;-6.356;2023-04-03T16:56:40;13.40;99.90
35531;DHT22;21637;53.352;-6.356;2023-04-03T16:59:06;13.30;99.90
35531;DHT22;21637;53.352;-6.356;2023-04-03T17:01:32;13.10;99.90
35531;DHT22;21637;53.352;-6.356;2023-04-03T17:03:58;12.90;99.90
35531;DHT22;21637;53.352;-6.356;2023-04-03T17:06:24;12.70;99.90
35531;DHT22;21637;53.352;-6.356;2023-04-03T17:08:51;12.60;99.90